createdAt,value
2023-01-27T00:01:17.797Z,42.68
2023-01-27T00:06:20.605Z,42.81
2023-01-27T00:11:53.842Z,42.83
2023-01-27T00:16:56.645Z,42.87
2023-01-27T00:22:16.927Z,43.05
2023-01-27T00:27:21.073Z,42.80
2023-01-27T00:32:41.438Z,43.00
2023-01-27T00:37:44.747Z,43.10
2023-01-27T00:42:48.909Z,42.98
2023-01-27T00:47:52.358Z,43.07
2023-01-27T00:52:55.163Z,43.27
2023-01-27T00:57:59.299Z,43.27
2023-01-27T01:03:02.096Z,43.26
2023-01-27T01:08:05.211Z,43.25
2023-01-27T01:13:11.756Z,43.24
2023-01-27T01:18:14.536Z,43.23
2023-01-27T01:23:17.441Z,43.41
2023-01-27T01:28:21.859Z,43.25
2023-01-27T01:33:24.606Z,43.22
2023-01-27T01:38:27.334Z,43.44
2023-01-27T01:43:31.539Z,43.46
2023-01-27T01:48:35.671Z,43.63
2023-01-27T01:53:41.823Z,43.48
2023-01-27T01:58:45.979Z,43.45
2023-01-27T02:03:50.078Z,43.70
2023-01-27T02:08:52.865Z,43.94
2023-01-27T02:13:57.120Z,43.62
2023-01-27T02:18:59.938Z,43.85
2023-01-27T02:24:06.414Z,43.66
2023-01-27T02:29:11.572Z,43.64
2023-01-27T02:34:15.921Z,43.70
2023-01-27T02:39:20.657Z,43.70
2023-01-27T02:44:25.026Z,43.88
2023-01-27T02:49:27.891Z,43.80
2023-01-27T02:54:30.757Z,43.75
2023-01-27T02:59:35.102Z,43.83
2023-01-27T03:04:39.748Z,43.82
2023-01-27T03:09:42.524Z,43.90
2023-01-27T03:15:04.177Z,44.01
2023-01-27T03:20:07.796Z,44.19
2023-01-27T03:25:11.481Z,44.28
2023-01-27T03:30:16.503Z,43.96
2023-01-27T03:35:34.102Z,43.92
2023-01-27T03:40:54.943Z,44.04
2023-01-27T03:46:20.615Z,44.17
2023-01-27T03:51:24.923Z,43.90
2023-01-27T03:56:27.783Z,44.37
2023-01-27T04:01:32.002Z,44.10
2023-01-27T04:06:54.792Z,44.32
2023-01-27T04:11:59.676Z,44.36
2023-01-27T04:17:05.550Z,44.14
2023-01-27T04:22:08.543Z,44.13
2023-01-27T04:27:12.446Z,44.39
2023-01-27T04:32:16.573Z,44.39
2023-01-27T04:37:19.352Z,44.31
2023-01-27T04:42:22.618Z,44.67
2023-01-27T04:47:27.487Z,44.60
2023-01-27T04:52:30.296Z,44.55
2023-01-27T04:57:33.114Z,44.61
2023-01-27T05:02:37.313Z,44.30
2023-01-27T05:07:40.184Z,44.34
2023-01-27T05:12:43.024Z,44.47
2023-01-27T05:17:47.216Z,44.30
2023-01-27T05:22:51.661Z,44.57
2023-01-27T05:27:54.930Z,44.63
2023-01-27T05:32:59.059Z,44.71
2023-01-27T05:38:02.057Z,44.80
2023-01-27T05:43:04.985Z,44.56
2023-01-27T05:48:09.243Z,44.68
2023-01-27T05:53:12.062Z,45.02
2023-01-27T05:58:14.878Z,45.17
2023-01-27T06:03:19.038Z,45.21
2023-01-27T06:08:22.234Z,45.15
2023-01-27T06:13:25.191Z,45.61
2023-01-27T06:18:29.299Z,45.49
2023-01-27T06:23:32.099Z,45.84
2023-01-27T06:28:34.984Z,45.87
2023-01-27T06:33:39.162Z,45.74
2023-01-27T06:38:42.033Z,46.21
2023-01-27T06:43:44.880Z,46.19
2023-01-27T06:48:48.984Z,46.05
2023-01-27T06:53:51.842Z,46.33
2023-01-27T06:58:54.617Z,46.31
2023-01-27T07:03:58.792Z,46.69
2023-01-27T07:09:01.690Z,46.52
2023-01-27T07:14:04.486Z,46.42
2023-01-27T07:19:08.605Z,46.88
2023-01-27T07:24:11.841Z,46.79
2023-01-27T07:29:14.684Z,47.05
2023-01-27T07:34:18.923Z,46.85
2023-01-27T07:39:21.700Z,47.28
2023-01-27T07:44:24.476Z,47.25
2023-01-27T07:49:28.583Z,47.27
2023-01-27T07:54:31.496Z,47.22
2023-01-27T07:59:34.408Z,47.10
2023-01-27T08:04:52.158Z,47.21
2023-01-27T08:09:57.216Z,47.21
2023-01-27T08:15:00.044Z,46.73
2023-01-27T08:20:04.578Z,46.51
2023-01-27T08:25:08.077Z,46.20
2023-01-27T08:30:12.319Z,46.11
2023-01-27T08:35:16.601Z,42.19
2023-01-27T08:40:19.610Z,32.76
2023-01-27T08:45:22.399Z,34.51
2023-01-27T08:50:26.503Z,36.33
2023-01-27T08:55:29.744Z,36.68
2023-01-27T09:00:32.593Z,37.11
2023-01-27T09:05:37.837Z,37.18
2023-01-27T09:10:40.802Z,38.22
2023-01-27T09:15:43.795Z,38.54
2023-01-27T09:20:47.920Z,38.68
2023-01-27T09:25:50.695Z,39.28
2023-01-27T09:30:58.019Z,39.38
2023-01-27T09:36:03.050Z,39.76
2023-01-27T09:41:50.544Z,40.00
2023-01-27T09:47:07.125Z,40.08
2023-01-27T09:52:23.357Z,40.29
2023-01-27T09:57:32.199Z,40.71
2023-01-27T10:02:44.207Z,40.62
2023-01-27T10:08:13.846Z,40.87
2023-01-27T10:13:19.337Z,41.09
2023-01-27T10:18:29.874Z,41.08
2023-01-27T10:23:40.715Z,41.36
2023-01-27T10:28:47.791Z,41.21
2023-01-27T10:33:52.655Z,41.38
2023-01-27T10:39:03.601Z,41.21
2023-01-27T10:44:13.804Z,41.65
2023-01-27T10:49:23.295Z,41.67
2023-01-27T10:54:29.304Z,41.84
2023-01-27T10:59:35.151Z,41.78
2023-01-27T11:04:39.701Z,41.98
2023-01-27T11:09:44.939Z,42.33
2023-01-27T11:14:49.515Z,42.47
2023-01-27T11:19:57.703Z,42.50
2023-01-27T11:25:05.387Z,42.58
2023-01-27T11:30:12.137Z,43.13
2023-01-27T11:35:15.896Z,43.54
2023-01-27T11:40:22.742Z,43.63
2023-01-27T11:45:25.604Z,43.65
2023-01-27T11:50:30.175Z,43.74
2023-01-27T11:55:37.359Z,44.06
2023-01-27T12:00:45.349Z,43.84
2023-01-27T12:05:50.155Z,43.88
2023-01-27T12:10:54.296Z,43.95
2023-01-27T12:15:59.837Z,44.19
2023-01-27T12:21:03.713Z,44.10
2023-01-27T12:26:08.471Z,43.99
2023-01-27T12:31:12.055Z,44.13
2023-01-27T12:36:16.332Z,44.14
2023-01-27T12:41:24.250Z,44.23
2023-01-27T12:46:27.624Z,44.09
2023-01-27T12:51:40.906Z,44.06
2023-01-27T12:56:45.039Z,44.18
2023-01-27T13:01:59.062Z,44.28
2023-01-27T13:07:06.550Z,44.23
2023-01-27T13:12:16.582Z,44.54
2023-01-27T13:17:30.235Z,44.39
2023-01-27T13:22:33.937Z,44.29
2023-01-27T13:27:40.190Z,44.44
2023-01-27T13:32:42.980Z,44.56
2023-01-27T13:37:49.197Z,44.75
2023-01-27T13:42:55.580Z,44.49
2023-01-27T13:47:59.792Z,44.60
2023-01-27T13:53:02.554Z,45.01
2023-01-27T13:58:08.220Z,44.70
2023-01-27T14:03:40.900Z,45.05
2023-01-27T14:08:51.879Z,45.26
2023-01-27T14:14:04.191Z,45.25
2023-01-27T14:19:10.967Z,45.20
2023-01-27T14:24:21.089Z,45.40
2023-01-27T14:29:29.895Z,45.46
2023-01-27T14:34:38.650Z,45.73
2023-01-27T14:39:44.127Z,45.35
2023-01-27T14:45:04.555Z,44.91
2023-01-27T14:50:14.911Z,44.58
2023-01-27T14:55:23.952Z,44.08
2023-01-27T15:00:37.153Z,43.82
2023-01-27T15:05:41.188Z,43.48
2023-01-27T15:10:46.303Z,42.77
2023-01-27T15:16:17.696Z,42.54
2023-01-27T15:21:33.195Z,42.29
2023-01-27T15:26:36.127Z,41.89
2023-01-27T15:31:40.561Z,41.46
2023-01-27T15:37:02.452Z,41.19
2023-01-27T15:42:11.508Z,40.98
2023-01-27T15:47:18.028Z,40.62
2023-01-27T15:52:27.082Z,40.77
2023-01-27T15:57:30.816Z,40.72
2023-01-27T16:02:38.171Z,40.83
2023-01-27T16:07:40.980Z,40.96
2023-01-27T16:12:47.904Z,40.90
2023-01-27T16:18:13.528Z,40.87
2023-01-27T16:23:17.661Z,40.95
2023-01-27T16:28:22.588Z,40.71
2023-01-27T16:33:29.058Z,41.01
2023-01-27T16:38:33.087Z,40.91
2023-01-27T16:43:42.577Z,41.08
2023-01-27T16:48:46.795Z,41.30
2023-01-27T16:53:50.209Z,41.68
2023-01-27T16:58:53.231Z,42.05
2023-01-27T17:04:04.816Z,41.69
2023-01-27T17:09:21.321Z,41.17
2023-01-27T17:14:31.621Z,40.61
2023-01-27T17:19:36.937Z,40.77
2023-01-27T17:24:44.093Z,40.56
2023-01-27T17:29:47.007Z,39.87
2023-01-27T17:34:51.620Z,39.70
2023-01-27T17:39:55.605Z,39.79
2023-01-27T17:45:12.772Z,39.67
2023-01-27T17:50:18.380Z,39.53
2023-01-27T17:55:22.520Z,39.04
2023-01-27T18:00:26.146Z,39.01
2023-01-27T18:05:31.755Z,38.80
2023-01-27T18:10:38.201Z,38.73
2023-01-27T18:15:42.598Z,38.89
2023-01-27T18:20:46.967Z,38.92
2023-01-27T18:25:51.576Z,38.77
2023-01-27T18:30:54.843Z,38.63
2023-01-27T18:35:59.884Z,38.86
2023-01-27T18:41:12.027Z,38.52
2023-01-27T18:46:15.200Z,38.90
2023-01-27T18:51:19.383Z,38.94
2023-01-27T18:56:22.228Z,38.52
2023-01-27T19:01:24.994Z,38.68
2023-01-27T19:06:29.126Z,38.40
2023-01-27T19:11:32.870Z,38.43
2023-01-27T19:16:36.672Z,38.14
2023-01-27T19:21:40.903Z,38.34
2023-01-27T19:26:43.732Z,39.21
2023-01-27T19:31:46.533Z,39.48
2023-01-27T19:36:50.714Z,39.43
2023-01-27T19:41:53.508Z,39.51
2023-01-27T19:46:56.589Z,39.64
2023-01-27T19:52:00.790Z,39.65
2023-01-27T19:57:04.974Z,39.48
2023-01-27T20:02:07.744Z,39.82
2023-01-27T20:07:13.125Z,39.74
2023-01-27T20:12:17.604Z,39.60
2023-01-27T20:17:20.433Z,39.43
2023-01-27T20:22:26.317Z,39.44
2023-01-27T20:27:29.117Z,39.59
2023-01-27T20:32:31.931Z,39.46
2023-01-27T20:37:36.172Z,39.73
2023-01-27T20:42:39.175Z,39.47
2023-01-27T20:47:42.138Z,39.66
2023-01-27T20:52:48.242Z,39.39
2023-01-27T20:57:51.207Z,39.41
2023-01-27T21:02:54.080Z,39.37
2023-01-27T21:07:58.255Z,39.37
2023-01-27T21:13:01.026Z,39.51
2023-01-27T21:18:03.831Z,39.49
2023-01-27T21:23:07.989Z,39.53
2023-01-27T21:28:10.822Z,39.12
2023-01-27T21:33:13.674Z,39.90
2023-01-27T21:38:18.387Z,40.14
2023-01-27T21:43:39.025Z,40.28
2023-01-27T21:48:41.747Z,40.12
2023-01-27T21:53:45.949Z,40.49
2023-01-27T21:58:48.702Z,40.34
2023-01-27T22:03:51.491Z,40.24
2023-01-27T22:08:55.615Z,40.31
2023-01-27T22:13:58.444Z,40.70
2023-01-27T22:19:01.170Z,40.74
2023-01-27T22:24:05.580Z,40.90
2023-01-27T22:29:08.400Z,40.75
2023-01-27T22:34:11.206Z,40.96
2023-01-27T22:39:15.348Z,40.88
2023-01-27T22:44:18.410Z,41.31
2023-01-27T22:49:21.185Z,41.47
2023-01-27T22:54:26.117Z,41.31
2023-01-27T22:59:28.867Z,41.37
2023-01-27T23:04:31.624Z,41.39
2023-01-27T23:09:35.725Z,41.73
2023-01-27T23:14:38.531Z,41.68
2023-01-27T23:19:41.529Z,41.63
2023-01-27T23:24:45.730Z,41.60
2023-01-27T23:29:48.501Z,41.65
2023-01-27T23:34:51.540Z,41.79
2023-01-27T23:39:55.672Z,41.60
2023-01-27T23:44:58.494Z,41.89
2023-01-27T23:50:01.237Z,41.79
2023-01-27T23:55:05.840Z,42.00
